Time;durP1;ratioP1;P1;durP2;ratioP2;P2;SDS_P1;SDS_P2;PMS_P1;PMS_P2;Temp;Humidity;BMP_temperature;BMP_pressure;BME280_temperature;BME280_humidity;BME280_pressure;Samples;Min_cycle;Max_cycle;Signal;HPM_P1;HPM_P2
2023/08/10 00:01:31;;;;;;;7.00;6.10;;;;;;;12.63;100.00;99245.89;109626;1251;66936;-77
2023/08/10 00:03:57;;;;;;;6.20;5.60;;;;;;;12.58;100.00;99245.30;109603;1250;61017;-78
2023/08/10 00:06:24;;;;;;;6.00;5.40;;;;;;;12.53;100.00;99241.38;109632;1251;64163;-78
2023/08/10 00:08:51;;;;;;;6.30;5.80;;;;;;;12.48;100.00;99243.50;109536;1251;59013;-78
2023/08/10 00:11:17;;;;;;;7.30;6.00;;;;;;;12.43;100.00;99246.36;109547;1251;59041;-78
2023/08/10 00:13:44;;;;;;;8.40;5.90;;;;;;;12.38;100.00;99250.86;109585;1251;66073;-78
2023/08/10 00:16:11;;;;;;;7.10;5.40;;;;;;;12.33;100.00;99250.48;109609;1251;61290;-78
2023/08/10 00:18:37;;;;;;;6.90;5.20;;;;;;;12.29;100.00;99250.76;109602;1251;63967;-78
2023/08/10 00:21:04;;;;;;;6.80;5.70;;;;;;;12.25;100.00;99252.96;109570;1251;59029;-78
2023/08/10 00:23:31;;;;;;;7.00;6.20;;;;;;;12.25;100.00;99253.34;109598;1251;59024;-78
2023/08/10 00:25:57;;;;;;;7.60;6.80;;;;;;;12.24;100.00;99256.63;109615;1250;64706;-78
2023/08/10 00:28:24;;;;;;;6.80;6.10;;;;;;;12.22;100.00;99259.59;109460;1250;59300;-78
2023/08/10 00:30:51;;;;;;;7.80;6.90;;;;;;;12.19;100.00;99264.28;109561;1251;73864;-78
2023/08/10 00:33:18;;;;;;;7.90;6.50;;;;;;;12.16;100.00;99267.88;109591;1251;59039;-78
2023/08/10 00:35:44;;;;;;;6.30;5.60;;;;;;;12.12;100.00;99266.73;109594;1250;58903;-78
2023/08/10 00:38:11;;;;;;;7.10;6.30;;;;;;;12.07;100.00;99264.02;109606;1250;66959;-78
2023/08/10 00:40:38;;;;;;;6.00;5.10;;;;;;;12.02;100.00;99261.52;109579;1250;59146;-76
2023/08/10 00:43:05;;;;;;;6.30;5.70;;;;;;;11.96;100.00;99263.88;109516;1251;156523;-77
2023/08/10 00:45:32;;;;;;;6.60;5.90;;;;;;;11.88;100.00;99263.39;109599;1251;59060;-76
2023/08/10 00:47:59;;;;;;;4.00;3.60;;;;;;;11.79;100.00;99267.69;109656;1251;59001;-77
2023/08/10 00:50:26;;;;;;;3.80;3.50;;;;;;;11.71;100.00;99271.77;109377;1251;65734;-77
2023/08/10 00:52:52;;;;;;;5.30;4.80;;;;;;;11.65;100.00;99269.65;109617;1251;67548;-77
2023/08/10 00:55:19;;;;;;;7.30;4.60;;;;;;;11.63;100.00;99266.91;109602;1251;64042;-77
2023/08/10 00:57:46;;;;;;;6.50;5.50;;;;;;;11.66;100.00;99267.66;109582;1251;59025;-76
2023/08/10 01:00:14;;;;;;;5.50;5.00;;;;;;;11.69;100.00;99270.48;109624;1251;59016;-77
2023/08/10 01:02:40;;;;;;;5.60;5.00;;;;;;;11.73;100.00;99271.48;109577;1251;64513;-77
2023/08/10 01:05:12;;;;;;;6.60;5.90;;;;;;;11.78;100.00;99269.93;109668;1251;59859;-77
2023/08/10 01:07:57;;;;;;;8.70;7.00;;;;;;;11.81;100.00;99265.94;109622;1251;64920;-77
2023/08/10 01:10:26;;;;;;;9.60;8.70;;;;;;;11.83;100.00;99266.86;109423;1251;59044;-77
2023/08/10 01:12:59;;;;;;;11.50;9.40;;;;;;;11.85;100.00;99265.30;109599;1251;58914;-78
2023/08/10 01:15:29;;;;;;;11.60;10.30;;;;;;;11.88;100.00;99267.65;109602;1250;65953;-77
2023/08/10 01:17:58;;;;;;;11.80;10.70;;;;;;;11.90;100.00;99270.22;109615;1250;60090;-77
2023/08/10 01:20:26;;;;;;;11.00;9.80;;;;;;;11.93;100.00;99275.70;109603;1251;63988;-77
2023/08/10 01:23:23;;;;;;;8.70;7.90;;;;;;;11.95;100.00;99274.45;109613;1251;58984;-77
2023/08/10 01:25:51;;;;;;;12.80;10.70;;;;;;;11.94;100.00;99274.85;109625;1251;59067;-78
2023/08/10 01:28:18;;;;;;;9.90;9.00;;;;;;;11.94;100.00;99273.29;109584;1251;67169;-78
2023/08/10 01:30:45;;;;;;;11.60;10.10;;;;;;;11.93;100.00;99272.48;109511;1251;60209;-78
2023/08/10 01:33:13;;;;;;;10.40;9.40;;;;;;;11.96;100.00;99274.58;109607;1251;63716;-78
2023/08/10 01:35:39;;;;;;;9.00;7.80;;;;;;;11.95;100.00;99276.97;109441;1251;58968;-78
2023/08/10 01:38:06;;;;;;;8.50;7.50;;;;;;;11.94;100.00;99276.86;109620;1251;58957;-78
2023/08/10 01:40:33;;;;;;;9.30;7.90;;;;;;;11.94;100.00;99272.91;109638;1251;66094;-77
2023/08/10 01:42:59;;;;;;;8.40;7.60;;;;;;;11.96;100.00;99273.34;109624;1251;59826;-78
2023/08/10 01:45:26;;;;;;;12.00;9.40;;;;;;;11.98;100.00;99271.25;109578;1251;64022;-76
2023/08/10 01:48:32;;;;;;;9.40;6.90;;;;;;;12.00;100.00;99276.58;109565;1251;58960;-76
2023/08/10 01:51:02;;;;;;;28.50;11.20;;;;;;;12.04;100.00;99281.68;109646;1251;59132;-77
2023/08/10 01:53:31;;;;;;;32.60;10.30;;;;;;;12.08;100.00;99279.26;109624;1251;67192;-77
2023/08/10 01:55:59;;;;;;;20.50;11.50;;;;;;;12.12;100.00;99281.88;109615;1250;61055;-78
2023/08/10 01:58:25;;;;;;;48.80;12.00;;;;;;;12.14;100.00;99290.06;109595;1251;64041;-78
2023/08/10 02:00:52;;;;;;;50.80;12.70;;;;;;;12.18;100.00;99291.09;109550;1251;59008;-78
2023/08/10 02:03:19;;;;;;;54.40;14.20;;;;;;;12.21;100.00;99293.87;109483;1251;59045;-78
2023/08/10 02:05:45;;;;;;;57.80;13.70;;;;;;;12.24;100.00;99289.90;109509;1250;66033;-76
2023/08/10 02:08:12;;;;;;;66.30;16.70;;;;;;;12.27;100.00;99293.45;109598;1250;61337;-76
2023/08/10 02:10:39;;;;;;;43.30;14.90;;;;;;;12.30;100.00;99298.22;109464;1251;64319;-77
2023/08/10 02:13:06;;;;;;;76.50;14.10;;;;;;;12.34;100.00;99303.14;109603;1251;59318;-77
2023/08/10 02:15:32;;;;;;;42.80;12.60;;;;;;;12.34;100.00;99304.08;109615;1251;60186;-77
2023/08/10 02:17:59;;;;;;;40.70;12.50;;;;;;;12.35;100.00;99305.75;109627;1250;66937;-77
2023/08/10 02:20:25;;;;;;;55.10;12.10;;;;;;;12.39;100.00;99309.94;109665;1251;67590;-77
2023/08/10 02:22:53;;;;;;;29.90;12.60;;;;;;;12.42;100.00;99312.88;109401;1251;64086;-76
2023/08/10 02:25:21;;;;;;;24.40;11.00;;;;;;;12.46;100.00;99312.23;109319;1251;59107;-77
2023/08/10 02:27:50;;;;;;;39.20;12.70;;;;;;;12.49;100.00;99307.08;109567;1251;59144;-76
2023/08/10 02:30:17;;;;;;;31.00;13.40;;;;;;;12.52;100.00;99311.18;109552;1251;66018;-77
2023/08/10 02:32:44;;;;;;;33.90;11.90;;;;;;;12.53;100.00;99312.73;109586;1250;61489;-77
2023/08/10 02:35:11;;;;;;;38.30;11.90;;;;;;;12.50;100.00;99315.73;109634;1251;64035;-77
2023/08/10 02:37:38;;;;;;;49.20;12.30;;;;;;;12.50;100.00;99314.46;109605;1251;59014;-77
2023/08/10 02:40:07;;;;;;;42.20;13.70;;;;;;;12.48;100.00;99309.45;109561;1251;58876;-77
2023/08/10 02:42:33;;;;;;;32.50;13.30;;;;;;;12.48;100.00;99307.30;109679;1251;65858;-77
2023/08/10 02:45:00;;;;;;;45.60;13.70;;;;;;;12.50;100.00;99310.20;109685;1250;60004;-76
2023/08/10 02:47:27;;;;;;;29.00;14.10;;;;;;;12.53;100.00;99308.40;109465;1251;64876;-77
2023/08/10 02:49:53;;;;;;;41.50;13.70;;;;;;;12.56;100.00;99307.31;109562;1251;58934;-77
2023/08/10 02:52:20;;;;;;;31.50;14.20;;;;;;;12.58;100.00;99306.98;109642;1251;58868;-77
2023/08/10 02:54:47;;;;;;;35.60;13.00;;;;;;;12.58;100.00;99305.71;109529;1250;67014;-78
2023/08/10 02:57:14;;;;;;;41.60;13.10;;;;;;;12.58;100.00;99304.13;109689;1250;58972;-78
2023/08/10 02:59:40;;;;;;;51.50;12.80;;;;;;;12.58;100.00;99307.52;109453;1251;63270;-78
2023/08/10 03:02:07;;;;;;;74.70;12.70;;;;;;;12.59;100.00;99306.58;109607;1251;58970;-78
2023/08/10 03:04:33;;;;;;;75.40;12.90;;;;;;;12.58;100.00;99309.13;109664;1251;58950;-78
2023/08/10 03:07:01;;;;;;;81.90;15.50;;;;;;;12.58;100.00;99308.97;109601;1250;65922;-78
2023/08/10 03:09:28;;;;;;;52.90;14.50;;;;;;;12.59;100.00;99311.59;109577;1251;60272;-77
2023/08/10 03:11:54;;;;;;;69.20;15.90;;;;;;;12.60;100.00;99315.80;109597;1251;64136;-78
2023/08/10 03:14:21;;;;;;;62.80;14.80;;;;;;;12.61;100.00;99319.45;109612;1251;59026;-78
2023/08/10 03:16:47;;;;;;;36.80;14.50;;;;;;;12.62;100.00;99321.67;109612;1251;59021;-78
2023/08/10 03:19:14;;;;;;;27.10;13.90;;;;;;;12.64;100.00;99320.44;109632;1250;66045;-78
2023/08/10 03:21:40;;;;;;;22.50;14.00;;;;;;;12.66;100.00;99317.09;109429;1251;60106;-77
2023/08/10 03:24:07;;;;;;;27.50;15.60;;;;;;;12.67;100.00;99317.54;109601;1251;63845;-77
2023/08/10 03:26:34;;;;;;;22.20;13.50;;;;;;;12.67;100.00;99321.36;109386;1251;58988;-77
2023/08/10 03:29:00;;;;;;;21.70;14.00;;;;;;;12.64;100.00;99327.60;109619;1251;58987;-77
2023/08/10 03:31:29;;;;;;;25.40;12.70;;;;;;;12.62;100.00;99323.45;109605;1251;64486;-77
2023/08/10 03:33:55;;;;;;;21.30;13.20;;;;;;;12.61;100.00;99322.63;109642;1251;59213;-77
2023/08/10 03:36:22;;;;;;;21.40;12.50;;;;;;;12.60;100.00;99318.40;109593;1251;65263;-77
2023/08/10 03:38:49;;;;;;;23.10;13.50;;;;;;;12.58;100.00;99319.28;109628;1251;59062;-77
2023/08/10 03:41:15;;;;;;;22.30;13.40;;;;;;;12.55;100.00;99319.15;109704;1251;58869;-77
2023/08/10 03:43:42;;;;;;;37.70;14.60;;;;;;;12.55;100.00;99322.05;109608;1251;67111;-77
2023/08/10 03:46:08;;;;;;;27.50;15.50;;;;;;;12.56;100.00;99323.71;109607;1251;59976;-77
2023/08/10 03:48:35;;;;;;;26.50;15.40;;;;;;;12.59;100.00;99325.48;109580;1251;62920;-76
2023/08/10 03:51:02;;;;;;;56.30;14.10;;;;;;;12.63;100.00;99329.81;109492;1251;59015;-77
2023/08/10 03:53:28;;;;;;;113.10;15.10;;;;;;;12.67;100.00;99330.80;109621;1251;58947;-77
2023/08/10 03:55:55;;;;;;;50.70;13.70;;;;;;;12.70;100.00;99335.92;109413;1251;66066;-77
2023/08/10 03:58:21;;;;;;;85.30;15.50;;;;;;;12.75;100.00;99343.25;109549;1253;58979;-77
2023/08/10 04:00:48;;;;;;;48.10;13.50;;;;;;;12.80;100.00;99348.21;109504;1254;64323;-77
2023/08/10 04:03:15;;;;;;;58.90;12.90;;;;;;;12.83;100.00;99351.97;109462;1252;59008;-77
2023/08/10 04:05:42;;;;;;;26.60;12.90;;;;;;;12.86;100.00;99353.17;109512;1253;61168;-77
2023/08/10 04:08:09;;;;;;;35.20;11.50;;;;;;;12.88;100.00;99354.30;109497;1252;66101;-77
2023/08/10 04:10:36;;;;;;;35.30;11.30;;;;;;;12.88;100.00;99353.70;109551;1253;60198;-76
2023/08/10 04:13:03;;;;;;;42.50;12.00;;;;;;;12.89;100.00;99354.34;109216;1254;64209;-77
2023/08/10 04:15:30;;;;;;;65.10;12.70;;;;;;;12.93;100.00;99349.81;109500;1252;59035;-77
2023/08/10 04:17:57;;;;;;;26.40;11.30;;;;;;;12.95;100.00;99349.45;109546;1252;59352;-77
2023/08/10 04:20:24;;;;;;;31.70;11.90;;;;;;;12.97;100.00;99350.74;109537;1253;64821;-77
2023/08/10 04:22:52;;;;;;;23.10;11.80;;;;;;;12.95;100.00;99352.55;109507;1253;60827;-77
2023/08/10 04:25:19;;;;;;;21.00;12.40;;;;;;;12.97;100.00;99355.61;109539;1252;64171;-77
2023/08/10 04:27:45;;;;;;;17.80;11.20;;;;;;;13.01;100.00;99357.27;109496;1253;58968;-77
2023/08/10 04:30:13;;;;;;;19.00;11.20;;;;;;;13.05;100.00;99355.20;109560;1252;58971;-77
2023/08/10 04:32:40;;;;;;;28.40;11.00;;;;;;;13.13;100.00;99354.96;109069;1251;66053;-77
2023/08/10 04:35:07;;;;;;;20.70;11.20;;;;;;;13.21;100.00;99356.75;109537;1251;60103;-77
2023/08/10 04:37:33;;;;;;;23.50;11.20;;;;;;;13.24;100.00;99359.71;109540;1252;64059;-77
2023/08/10 04:40:00;;;;;;;35.80;10.70;;;;;;;13.25;100.00;99358.56;109517;1252;58964;-77
2023/08/10 04:42:27;;;;;;;23.80;10.90;;;;;;;13.28;100.00;99356.98;109535;1253;59016;-78
2023/08/10 04:44:54;;;;;;;26.80;10.90;;;;;;;13.35;100.00;99354.52;109530;1253;65818;-77
2023/08/10 04:47:21;;;;;;;47.60;11.30;;;;;;;13.44;100.00;99355.82;109332;1252;59834;-77
2023/08/10 04:49:47;;;;;;;28.10;10.70;;;;;;;13.55;100.00;99353.04;109410;1253;62836;-77
2023/08/10 04:52:14;;;;;;;18.00;12.50;;;;;;;13.67;100.00;99352.52;109503;1252;59045;-77
2023/08/10 04:54:42;;;;;;;19.10;12.60;;;;;;;13.72;100.00;99352.30;109494;1252;59047;-77
2023/08/10 04:57:08;;;;;;;27.00;13.80;;;;;;;13.76;100.00;99353.27;109523;1253;64897;-77
2023/08/10 04:59:36;;;;;;;26.50;12.00;;;;;;;13.79;100.00;99355.57;109562;1252;60072;-77
2023/08/10 05:02:04;;;;;;;21.70;13.40;;;;;;;13.79;100.00;99357.69;109567;1252;62524;-77
2023/08/10 05:04:31;;;;;;;18.30;12.50;;;;;;;13.80;100.00;99359.03;109499;1254;59013;-77
2023/08/10 05:06:57;;;;;;;29.60;12.90;;;;;;;13.85;100.00;99357.61;109538;1252;58950;-77
2023/08/10 05:09:24;;;;;;;23.00;13.60;;;;;;;13.87;100.00;99363.73;109537;1252;65725;-77
2023/08/10 05:11:50;;;;;;;22.70;17.80;;;;;;;13.87;100.00;99366.42;109504;1252;59914;-77
2023/08/10 05:14:17;;;;;;;24.00;13.00;;;;;;;13.86;100.00;99371.10;109476;1252;73558;-77
2023/08/10 05:16:45;;;;;;;29.80;13.20;;;;;;;13.86;100.00;99373.80;109449;1253;58914;-77
2023/08/10 05:19:11;;;;;;;37.50;13.60;;;;;;;13.85;100.00;99376.51;109526;1252;58929;-77
2023/08/10 05:21:38;;;;;;;23.20;12.10;;;;;;;13.81;100.00;99383.23;109544;1253;64766;-77
2023/08/10 05:24:05;;;;;;;26.00;13.00;;;;;;;13.78;100.00;99385.60;109252;1253;59023;-77
2023/08/10 05:26:32;;;;;;;34.50;13.80;;;;;;;13.77;100.00;99393.04;109516;1252;62497;-77
2023/08/10 05:28:58;;;;;;;20.30;14.20;;;;;;;13.76;100.00;99396.32;109390;1253;59435;-77
2023/08/10 05:31:25;;;;;;;22.30;14.20;;;;;;;13.78;100.00;99394.59;109581;1252;58944;-77
2023/08/10 05:33:52;;;;;;;35.90;14.00;;;;;;;13.81;100.00;99398.59;109543;1253;66280;-76
2023/08/10 05:36:19;;;;;;;27.30;12.90;;;;;;;13.86;100.00;99401.14;109359;1253;60193;-77
2023/08/10 05:38:45;;;;;;;18.30;13.60;;;;;;;13.88;100.00;99399.90;109519;1253;65121;-77
2023/08/10 05:41:12;;;;;;;20.50;13.60;;;;;;;13.92;100.00;99403.73;109486;1253;59027;-77
2023/08/10 05:43:39;;;;;;;18.20;14.20;;;;;;;14.02;100.00;99406.16;109568;1253;58854;-77
2023/08/10 05:46:06;;;;;;;20.50;15.70;;;;;;;14.19;100.00;99409.16;109441;1252;66849;-77
2023/08/10 05:48:33;;;;;;;19.60;15.40;;;;;;;14.45;100.00;99414.75;109540;1253;58980;-78
2023/08/10 05:50:59;;;;;;;28.20;17.10;;;;;;;14.68;100.00;99418.40;109538;1253;63756;-77
2023/08/10 05:53:26;;;;;;;21.00;16.10;;;;;;;14.82;100.00;99418.20;109525;1252;58962;-76
2023/08/10 05:55:53;;;;;;;18.30;15.00;;;;;;;14.94;100.00;99418.52;109435;1252;59044;-78
2023/08/10 05:58:20;;;;;;;23.40;16.00;;;;;;;15.00;100.00;99423.23;109223;1253;66199;-78
2023/08/10 06:00:47;;;;;;;21.10;15.50;;;;;;;15.11;100.00;99423.23;109548;1253;60153;-78
2023/08/10 06:03:14;;;;;;;21.70;16.20;;;;;;;15.27;100.00;99427.33;109567;1252;62541;-76
2023/08/10 06:05:42;;;;;;;24.20;16.20;;;;;;;15.44;100.00;99428.33;109224;1256;59009;-74
2023/08/10 06:08:09;;;;;;;17.80;15.40;;;;;;;15.61;100.00;99428.39;109543;1253;61580;-74
2023/08/10 06:10:36;;;;;;;19.30;16.20;;;;;;;15.72;100.00;99430.59;109567;1253;66080;-74
2023/08/10 06:13:02;;;;;;;20.40;17.20;;;;;;;15.88;100.00;99432.15;109538;1253;58943;-76
2023/08/10 06:15:29;;;;;;;19.30;16.50;;;;;;;16.07;100.00;99438.66;109515;1253;63733;-76
2023/08/10 06:17:56;;;;;;;19.50;16.80;;;;;;;16.15;100.00;99440.27;109546;1253;58939;-75
2023/08/10 06:20:23;;;;;;;23.10;17.80;;;;;;;16.20;100.00;99440.45;109564;1253;58924;-80
2023/08/10 06:22:50;;;;;;;21.20;18.90;;;;;;;16.22;100.00;99441.47;109364;1253;65845;-78
2023/08/10 06:25:17;;;;;;;24.00;20.00;;;;;;;16.18;100.00;99444.19;109550;1253;58931;-79
2023/08/10 06:27:44;;;;;;;23.50;19.90;;;;;;;15.99;100.00;99450.39;109480;1252;64049;-76
2023/08/10 06:30:13;;;;;;;23.50;19.50;;;;;;;15.79;100.00;99454.77;109539;1252;58955;-71
2023/08/10 06:32:40;;;;;;;25.10;19.80;;;;;;;15.59;100.00;99455.40;109403;1252;58884;-73
2023/08/10 06:35:08;;;;;;;26.40;20.00;;;;;;;15.48;100.00;99459.02;109524;1252;64910;-76
2023/08/10 06:37:36;;;;;;;23.30;20.20;;;;;;;15.46;100.00;99463.83;109584;1252;59243;-72
2023/08/10 06:40:08;;;;;;;22.70;19.20;;;;;;;15.51;100.00;99469.49;109485;1252;65365;-82
2023/08/10 06:42:36;;;;;;;25.80;18.70;;;;;;;15.54;100.00;99477.70;109214;1252;59105;-73
2023/08/10 06:45:04;;;;;;;22.80;18.70;;;;;;;15.57;100.00;99481.19;109525;1252;58940;-70
2023/08/10 06:47:31;;;;;;;20.80;18.20;;;;;;;15.52;100.00;99479.42;109301;1254;66056;-71
2023/08/10 06:49:58;;;;;;;26.40;19.30;;;;;;;15.50;100.00;99478.14;109548;1252;59372;-73
2023/08/10 06:52:25;;;;;;;24.60;20.00;;;;;;;15.51;100.00;99475.40;109500;1253;65190;-70
2023/08/10 06:54:52;;;;;;;27.30;20.70;;;;;;;15.56;100.00;99474.27;109528;1252;59322;-67
2023/08/10 06:57:20;;;;;;;27.50;19.50;;;;;;;15.67;100.00;99474.45;109515;1252;59000;-71
2023/08/10 06:59:47;;;;;;;23.00;20.00;;;;;;;15.81;100.00;99471.92;109417;1253;64484;-78
2023/08/10 07:02:16;;;;;;;26.30;20.40;;;;;;;16.00;100.00;99472.91;109534;1252;59006;-79
2023/08/10 07:04:46;;;;;;;21.80;18.50;;;;;;;16.25;100.00;99470.11;109547;1254;62623;-78
2023/08/10 07:07:14;;;;;;;21.50;19.20;;;;;;;16.42;100.00;99465.66;109541;1252;58947;-78
2023/08/10 07:09:42;;;;;;;21.30;18.80;;;;;;;16.58;100.00;99465.27;109623;1252;58937;-78
2023/08/10 07:12:08;;;;;;;20.40;17.70;;;;;;;16.70;100.00;99466.95;109517;1252;66131;-78
2023/08/10 07:14:35;;;;;;;19.20;16.80;;;;;;;16.88;100.00;99468.67;109323;1252;59833;-78
2023/08/10 07:17:02;;;;;;;21.80;17.90;;;;;;;17.09;100.00;99468.43;109289;1252;62800;-78
2023/08/10 07:19:29;;;;;;;22.70;18.30;;;;;;;17.31;100.00;99471.20;109527;1252;59085;-78
2023/08/10 07:21:55;;;;;;;18.70;16.80;;;;;;;17.54;100.00;99470.76;109512;1252;58962;-77
2023/08/10 07:24:22;;;;;;;14.70;13.30;;;;;;;17.81;100.00;99470.40;109466;1254;65877;-77
2023/08/10 07:26:50;;;;;;;14.90;13.40;;;;;;;17.99;100.00;99475.27;109490;1252;61272;-77
2023/08/10 07:29:17;;;;;;;15.00;13.60;;;;;;;18.08;100.00;99478.20;109450;1252;64120;-78
2023/08/10 07:31:44;;;;;;;15.30;13.70;;;;;;;18.03;100.00;99480.86;109510;1252;58928;-79
2023/08/10 07:34:10;;;;;;;15.00;13.60;;;;;;;17.97;100.00;99483.37;109573;1252;60067;-78
2023/08/10 07:36:37;;;;;;;17.10;15.40;;;;;;;18.01;100.00;99489.66;109512;1252;64837;-78
2023/08/10 07:39:03;;;;;;;17.00;15.40;;;;;;;18.12;100.00;99493.15;109506;1252;59326;-78
2023/08/10 07:41:30;;;;;;;17.20;15.40;;;;;;;18.30;100.00;99493.48;109534;1253;64083;-78
2023/08/10 07:43:57;;;;;;;16.00;14.50;;;;;;;18.51;100.00;99491.74;109470;1252;58909;-77
2023/08/10 07:46:23;;;;;;;15.50;13.70;;;;;;;18.77;100.00;99489.92;109521;1251;58912;-78
2023/08/10 07:48:50;;;;;;;15.60;14.10;;;;;;;18.96;100.00;99491.38;109493;1253;66027;-77
2023/08/10 07:51:16;;;;;;;15.40;13.80;;;;;;;19.03;100.00;99491.30;109531;1254;60202;-77
2023/08/10 07:53:44;;;;;;;17.40;15.60;;;;;;;19.20;100.00;99497.63;109522;1252;64024;-77
2023/08/10 07:56:11;;;;;;;15.30;14.00;;;;;;;19.46;100.00;99494.93;109482;1253;59019;-77
2023/08/10 07:58:37;;;;;;;14.60;13.30;;;;;;;19.59;100.00;99495.83;109383;1252;58972;-77
2023/08/10 08:01:07;;;;;;;15.20;13.80;;;;;;;19.59;100.00;99496.09;109479;1253;64845;-77
2023/08/10 08:03:34;;;;;;;13.80;12.40;;;;;;;19.57;100.00;99498.05;109568;1254;59035;-77
2023/08/10 08:06:01;;;;;;;15.70;14.10;;;;;;;19.70;100.00;99497.14;109534;1252;64105;-78
2023/08/10 08:08:30;;;;;;;14.60;13.30;;;;;;;19.82;100.00;99495.27;109475;1252;59017;-78
2023/08/10 08:10:57;;;;;;;13.30;12.00;;;;;;;19.96;100.00;99492.10;109535;1253;59042;-77
2023/08/10 08:13:23;;;;;;;14.60;13.10;;;;;;;20.14;100.00;99492.48;109526;1253;65797;-77
2023/08/10 08:15:50;;;;;;;13.00;11.90;;;;;;;20.33;100.00;99493.70;109529;1256;60181;-77
2023/08/10 08:18:40;;;;;;;13.40;12.20;;;;;;;20.57;100.00;99494.89;109368;1252;64073;-77
2023/08/10 08:21:08;;;;;;;13.70;12.40;;;;;;;20.83;100.00;99489.54;109527;1253;59108;-76
2023/08/10 08:23:35;;;;;;;13.00;10.90;;;;;;;20.99;100.00;99492.48;109523;1253;59041;-76
2023/08/10 08:26:02;;;;;;;12.50;11.30;;;;;;;20.92;100.00;99494.84;109328;1253;66220;-80
2023/08/10 08:28:28;;;;;;;13.40;12.20;;;;;;;20.79;100.00;99495.41;109530;1252;60138;-71
2023/08/10 08:30:55;;;;;;;13.60;11.90;;;;;;;20.73;100.00;99493.83;109328;1252;62654;-71
2023/08/10 08:33:22;;;;;;;13.30;12.10;;;;;;;20.72;100.00;99494.16;109443;1254;59111;-71
2023/08/10 08:35:49;;;;;;;13.00;11.70;;;;;;;20.82;100.00;99492.25;109533;1252;58988;-71
2023/08/10 08:38:15;;;;;;;11.90;10.70;;;;;;;21.04;100.00;99491.30;109533;1253;66129;-71
2023/08/10 08:40:42;;;;;;;12.00;10.90;;;;;;;21.31;100.00;99492.42;109478;1254;58934;-71
2023/08/10 08:43:10;;;;;;;13.80;11.00;;;;;;;21.76;100.00;99495.01;109543;1253;64091;-72
2023/08/10 08:45:40;;;;;;;13.40;12.00;;;;;;;22.16;100.00;99491.96;109463;1253;59124;-72
2023/08/10 08:48:07;;;;;;;12.80;11.80;;;;;;;22.35;100.00;99491.28;109526;1253;58972;-71
2023/08/10 08:50:36;;;;;;;14.40;12.90;;;;;;;22.32;100.00;99492.26;109379;1254;64869;-70
2023/08/10 08:53:05;;;;;;;12.60;11.30;;;;;;;22.49;100.00;99488.83;109503;1254;60116;-71
2023/08/10 08:55:32;;;;;;;14.30;12.80;;;;;;;22.66;100.00;99488.02;109554;1254;65217;-71
2023/08/10 08:57:59;;;;;;;15.20;13.60;;;;;;;22.73;100.00;99488.10;109528;1254;58952;-71
2023/08/10 09:00:26;;;;;;;13.50;12.10;;;;;;;22.77;100.00;99485.35;109336;1252;59926;-71
2023/08/10 09:02:52;;;;;;;11.30;10.20;;;;;;;22.90;100.00;99485.55;109522;1255;65037;-72
2023/08/10 09:05:19;;;;;;;13.20;11.90;;;;;;;23.09;100.00;99485.16;109504;1252;61249;-72
2023/08/10 09:07:46;;;;;;;12.10;11.10;;;;;;;22.92;100.00;99482.65;109489;1254;62519;-72
2023/08/10 09:10:12;;;;;;;12.00;10.90;;;;;;;22.52;100.00;99490.43;109498;1252;58967;-72
2023/08/10 09:12:40;;;;;;;12.20;11.00;;;;;;;22.12;100.00;99491.84;109547;1253;58980;-72
2023/08/10 09:15:16;;;;;;;11.70;10.50;;;;;;;21.84;100.00;99493.59;109552;1253;65855;-72
2023/08/10 09:17:44;;;;;;;14.10;12.80;;;;;;;21.87;100.00;99487.79;109560;1252;58983;-72
2023/08/10 09:20:17;;;;;;;13.00;11.50;;;;;;;21.84;100.00;99489.06;109516;1254;63775;-72
2023/08/10 09:22:44;;;;;;;13.40;11.80;;;;;;;21.69;100.00;99484.42;109519;1253;58963;-72
2023/08/10 09:25:11;;;;;;;13.80;12.10;;;;;;;21.68;100.00;99481.36;109533;1252;58892;-72
2023/08/10 09:27:37;;;;;;;12.80;11.60;;;;;;;21.73;100.00;99481.60;109505;1253;66346;-72
2023/08/10 09:30:06;;;;;;;14.10;11.80;;;;;;;21.83;100.00;99483.73;109467;1254;60185;-72
2023/08/10 09:32:34;;;;;;;10.40;9.40;;;;;;;21.88;100.00;99487.56;109361;1253;64245;-72
2023/08/10 09:35:02;;;;;;;10.80;9.80;;;;;;;21.82;100.00;99483.67;109535;1253;59071;-72
2023/08/10 09:37:28;;;;;;;11.30;10.20;;;;;;;21.79;100.00;99478.77;109351;1253;58945;-72
2023/08/10 09:39:57;;;;;;;11.70;9.90;;;;;;;21.64;100.00;99475.66;109525;1254;65695;-72
2023/08/10 09:42:24;;;;;;;9.60;8.60;;;;;;;21.44;100.00;99473.95;109519;1254;59920;-72
2023/08/10 09:44:51;;;;;;;9.20;8.30;;;;;;;21.29;100.00;99472.17;109220;1252;62943;-72
2023/08/10 09:47:19;;;;;;;8.80;8.10;;;;;;;21.26;100.00;99468.86;109359;1254;59145;-72
2023/08/10 09:50:06;;;;;;;8.60;7.80;;;;;;;21.16;100.00;99467.55;109508;1253;59049;-71
2023/08/10 09:52:36;;;;;;;9.40;7.50;;;;;;;21.10;100.00;99466.66;109505;1253;65731;-72
2023/08/10 09:55:04;;;;;;;8.40;7.30;;;;;;;21.09;100.00;99467.39;109523;1252;69149;-72
2023/08/10 09:57:32;;;;;;;7.40;6.60;;;;;;;21.24;100.00;99468.91;109515;1253;72933;-72
2023/08/10 09:59:59;;;;;;;6.40;5.80;;;;;;;21.31;100.00;99466.83;109506;1254;59033;-72
2023/08/10 10:02:26;;;;;;;8.40;7.60;;;;;;;21.39;100.00;99463.42;109469;1254;58882;-72
2023/08/10 10:04:53;;;;;;;9.80;8.80;;;;;;;21.55;100.00;99463.87;109474;1252;66263;-71
2023/08/10 10:07:28;;;;;;;10.40;9.20;;;;;;;21.69;100.00;99462.11;109474;1251;61282;-71
2023/08/10 10:09:59;;;;;;;11.10;7.80;;;;;;;21.76;100.00;99462.45;109527;1252;64168;-71
2023/08/10 10:12:27;;;;;;;7.90;7.20;;;;;;;21.66;100.00;99456.41;109476;1256;59090;-71
2023/08/10 10:14:54;;;;;;;6.80;5.00;;;;;;;21.61;100.00;99454.07;109502;1252;59075;-71
2023/08/10 10:17:21;;;;;;;8.60;7.50;;;;;;;21.64;100.00;99450.30;109472;1252;64845;-72
2023/08/10 10:19:51;;;;;;;9.10;7.30;;;;;;;21.66;100.00;99450.61;109518;1254;60146;-71
2023/08/10 10:22:18;;;;;;;7.90;7.10;;;;;;;21.63;100.00;99454.80;109503;1254;62888;-71
2023/08/10 10:24:47;;;;;;;8.40;7.10;;;;;;;21.63;100.00;99453.10;109449;1256;59322;-71
2023/08/10 10:27:14;;;;;;;6.80;6.20;;;;;;;21.67;100.00;99451.94;109504;1254;58969;-72
2023/08/10 10:29:58;;;;;;;6.50;5.80;;;;;;;21.75;100.00;99447.33;109553;1252;66483;-72
2023/08/10 10:32:25;;;;;;;5.60;5.00;;;;;;;21.86;100.00;99446.34;109545;1256;59061;-72
2023/08/10 10:34:53;;;;;;;5.50;5.00;;;;;;;21.93;100.00;99444.74;109499;1254;64083;-72
2023/08/10 10:37:30;;;;;;;5.50;4.70;;;;;;;22.00;100.00;99445.55;109531;1253;59323;-72
2023/08/10 10:40:18;;;;;;;3.90;3.60;;;;;;;22.08;100.00;99450.86;109538;1253;61498;-72
2023/08/10 10:43:03;;;;;;;3.00;2.70;;;;;;;22.12;100.00;99452.90;109534;1253;64919;-72
2023/08/10 10:45:41;;;;;;;3.10;2.90;;;;;;;22.09;100.00;99450.08;109547;1253;60203;-72
2023/08/10 10:48:12;;;;;;;3.30;2.80;;;;;;;21.88;100.00;99453.69;109527;1252;65334;-72
2023/08/10 10:50:39;;;;;;;3.50;2.50;;;;;;;21.66;100.00;99451.87;109553;1251;59050;-72
2023/08/10 10:53:13;;;;;;;4.20;3.80;;;;;;;21.61;100.00;99449.98;109428;1251;59089;-72
2023/08/10 10:55:44;;;;;;;3.30;3.00;;;;;;;21.62;100.00;99448.86;109575;1251;66060;-72
2023/08/10 10:58:13;;;;;;;3.40;2.80;;;;;;;21.82;100.00;99444.23;109606;1251;60327;-71
2023/08/10 11:00:41;;;;;;;2.50;2.30;;;;;;;22.04;100.00;99441.66;109569;1251;64094;-71
2023/08/10 11:03:09;;;;;;;2.40;2.20;;;;;;;22.16;100.00;99435.74;109603;1251;58998;-71
2023/08/10 11:05:37;;;;;;;3.90;2.50;;;;;;;22.17;100.00;99437.73;109652;1251;58860;-71
2023/08/10 11:08:06;;;;;;;3.20;2.20;;;;;;;22.22;100.00;99437.05;109618;1251;64927;-71
2023/08/10 11:10:36;;;;;;;2.60;2.10;;;;;;;22.36;100.00;99430.85;109588;1255;60125;-70